Time;durP1;ratioP1;P1;durP2;ratioP2;P2;SDS_P1;SDS_P2;PMS_P1;PMS_P2;Temp;Humidity;BMP_temperature;BMP_pressure;BME280_temperature;BME280_humidity;BME280_pressure;Samples;Min_cycle;Max_cycle;Signal;HPM_P1;HPM_P2
2022/05/11 00:01:56;;;;;;;5.75;2.65;;;;;;;18.68;54.46;101209.22;5037262;28;20132;-49
2022/05/11 00:04:24;;;;;;;8.30;3.00;;;;;;;18.70;54.49;101208.91;5036421;28;20160;-50
2022/05/11 00:06:53;;;;;;;6.85;3.00;;;;;;;18.71;54.34;101202.25;5030958;28;20423;-50
2022/05/11 00:09:21;;;;;;;5.75;2.90;;;;;;;18.72;54.35;101201.13;5042378;28;20071;-51
2022/05/11 00:11:49;;;;;;;5.30;2.65;;;;;;;18.70;54.38;101195.13;5055908;28;20048;-50
2022/05/11 00:14:16;;;;;;;5.97;2.92;;;;;;;18.69;54.65;101199.81;5067902;28;20048;-49
2022/05/11 00:16:44;;;;;;;6.95;2.75;;;;;;;18.69;55.03;101199.81;5053161;28;20089;-49
2022/05/11 00:19:12;;;;;;;8.55;3.33;;;;;;;18.68;55.44;101200.94;5033482;28;20049;-50
2022/05/11 00:21:39;;;;;;;14.82;3.13;;;;;;;18.65;55.85;101196.06;5034788;28;20037;-51
2022/05/11 00:24:07;;;;;;;6.50;2.85;;;;;;;18.64;55.97;101193.59;5016295;28;20047;-49
2022/05/11 00:26:35;;;;;;;6.53;3.50;;;;;;;18.64;56.05;101191.66;5034050;28;20042;-46
2022/05/11 00:29:02;;;;;;;7.28;3.00;;;;;;;18.64;56.05;101188.06;5037768;28;20041;-52
2022/05/11 00:31:30;;;;;;;6.70;2.90;;;;;;;18.64;56.01;101179.78;5070921;28;20048;-49
2022/05/11 00:33:58;;;;;;;5.90;2.90;;;;;;;18.64;55.93;101180.63;5054368;28;20048;-50
2022/05/11 00:36:26;;;;;;;6.80;2.90;;;;;;;18.63;56.11;101169.91;5052788;28;20048;-47
2022/05/11 00:38:54;;;;;;;5.25;2.90;;;;;;;18.60;56.06;101168.56;5032883;28;20037;-53
2022/05/11 00:41:21;;;;;;;8.48;3.25;;;;;;;18.58;56.25;101170.84;5071720;28;20056;-50
2022/05/11 00:43:56;;;;;;;6.70;3.10;;;;;;;18.58;56.06;101175.53;5073291;28;20044;-49
2022/05/11 00:46:32;;;;;;;5.32;3.00;;;;;;;18.58;56.11;101167.25;5059860;28;20071;-50
2022/05/11 00:51:55;;;;;;;5.50;2.90;;;;;;;18.58;56.11;101159.78;5037645;28;20499;-49
2022/05/11 00:54:23;;;;;;;7.07;2.90;;;;;;;18.58;55.97;101159.78;5035593;28;20111;-50
2022/05/11 00:56:54;;;;;;;7.97;2.97;;;;;;;18.54;55.94;101147.75;5052850;28;20492;-52
2022/05/11 00:59:25;;;;;;;4.85;3.05;;;;;;;18.52;56.12;101145.31;5036207;28;20045;-48
2022/05/11 01:01:53;;;;;;;7.57;2.85;;;;;;;18.51;56.09;101149.19;5036757;28;20473;-50
2022/05/11 01:04:42;;;;;;;5.68;2.92;;;;;;;18.50;55.86;101146.75;5050931;28;20040;-50
2022/05/11 01:07:30;;;;;;;7.13;2.80;;;;;;;18.51;55.94;101140.91;5036613;28;20041;-49
2022/05/11 01:09:58;;;;;;;3.95;2.60;;;;;;;18.51;55.92;101148.38;5068283;28;20044;-49
2022/05/11 01:12:31;;;;;;;8.00;3.10;;;;;;;18.51;56.10;101148.38;5071152;28;20062;-51
2022/05/11 01:15:00;;;;;;;8.18;3.17;;;;;;;18.51;55.87;101148.38;5073036;28;20094;-50
2022/05/11 01:17:29;;;;;;;6.57;2.97;;;;;;;18.49;56.02;101134.06;5059426;28;20072;-52
2022/05/11 01:19:56;;;;;;;6.47;2.80;;;;;;;18.48;55.84;101135.22;5036031;28;20037;-50
2022/05/11 01:22:27;;;;;;;7.55;3.53;;;;;;;18.47;55.86;101141.84;5053188;28;20040;-51
2022/05/11 01:24:54;;;;;;;6.93;3.10;;;;;;;18.46;55.83;101129.19;5054030;28;20071;-49
2022/05/11 01:27:26;;;;;;;8.30;3.00;;;;;;;18.46;55.55;101131.94;5052363;28;20415;-49
2022/05/11 01:29:57;;;;;;;4.50;2.90;;;;;;;18.46;55.78;101126.44;5053108;28;20127;-51
2022/05/11 01:32:27;;;;;;;6.30;3.20;;;;;;;18.44;55.56;101126.75;5053931;28;20529;-50
2022/05/11 01:35:04;;;;;;;7.07;3.50;;;;;;;18.44;55.56;101117.66;5068031;28;20048;-50
2022/05/11 01:37:37;;;;;;;7.50;3.22;;;;;;;18.44;55.44;101134.22;5038456;28;20037;-50
2022/05/11 01:40:05;;;;;;;5.07;3.00;;;;;;;18.43;55.42;101127.06;5037415;28;20041;-50
2022/05/11 01:42:33;;;;;;;8.90;3.20;;;;;;;18.43;55.55;101129.81;5034949;28;20049;-49
2022/05/11 01:45:00;;;;;;;5.60;3.13;;;;;;;18.41;55.44;101132.09;5053812;28;20037;-50
2022/05/11 01:47:28;;;;;;;6.43;3.03;;;;;;;18.41;55.33;101121.84;5036132;28;20048;-50
2022/05/11 01:49:56;;;;;;;7.00;3.10;;;;;;;18.40;55.31;101116.63;5053738;28;20037;-49
2022/05/11 01:52:23;;;;;;;5.88;3.00;;;;;;;18.40;55.11;101116.63;5052691;28;20045;-50
2022/05/11 01:54:51;;;;;;;6.18;3.00;;;;;;;18.39;55.18;101115.03;5052542;28;20037;-50
2022/05/11 01:57:18;;;;;;;5.95;2.97;;;;;;;18.39;55.10;101113.06;5034128;28;20415;-51
2022/05/11 01:59:46;;;;;;;4.10;2.38;;;;;;;18.40;55.23;101102.84;5053498;28;20047;-50
2022/05/11 02:02:14;;;;;;;6.25;2.90;;;;;;;18.39;55.08;101107.56;5053623;28;20055;-50
2022/05/11 02:10:13;;;;;;;;;;;;;;;18.37;55.14;101104.28;5051950;28;20124;-49
2022/05/11 02:12:41;;;;;;;4.85;2.50;;;;;;;18.36;55.35;101102.66;5056473;28;19921;-51
2022/05/11 02:15:10;;;;;;;5.28;2.55;;;;;;;18.37;55.24;101107.03;5056421;28;20041;-50
2022/05/11 02:17:38;;;;;;;4.95;2.67;;;;;;;18.36;55.32;101099.09;5018506;28;20408;-50
2022/05/11 02:20:06;;;;;;;6.70;2.75;;;;;;;18.36;55.18;101102.66;5035978;28;20416;-52
2022/05/11 02:22:33;;;;;;;6.25;2.88;;;;;;;18.35;55.16;101100.22;5038423;28;20065;-51
2022/05/11 02:25:01;;;;;;;7.38;3.00;;;;;;;18.33;55.29;101096.94;5075799;28;20050;-53
2022/05/11 02:27:31;;;;;;;3.97;2.60;;;;;;;18.32;55.13;101098.91;5059865;28;20041;-53
2022/05/11 02:30:01;;;;;;;9.32;2.75;;;;;;;18.31;55.38;101098.09;5038663;28;20388;-50
2022/05/11 02:32:29;;;;;;;6.28;3.00;;;;;;;18.30;55.53;101093.72;5055812;28;20399;-52
2022/05/11 02:35:16;;;;;;;5.82;2.90;;;;;;;18.30;55.38;101098.41;5055785;28;20049;-52
2022/05/11 02:37:51;;;;;;;5.80;2.88;;;;;;;18.26;55.62;101091.91;5055526;28;20664;-49
2022/05/11 02:40:22;;;;;;;8.52;2.70;;;;;;;18.25;55.70;101093.81;5049787;28;20069;-49
2022/05/11 02:42:50;;;;;;;6.22;2.47;;;;;;;18.25;55.67;101095.75;5056505;28;20440;-53
2022/05/11 02:45:18;;;;;;;4.63;2.83;;;;;;;18.26;55.65;101098.22;5072161;28;20044;-54
2022/05/11 02:47:46;;;;;;;8.55;2.92;;;;;;;18.26;55.79;101100.16;5038234;28;20407;-53
2022/05/11 02:50:18;;;;;;;4.20;2.50;;;;;;;18.23;55.63;101090.59;5055269;28;20044;-54
2022/05/11 02:52:46;;;;;;;6.93;2.90;;;;;;;18.23;55.69;101104.38;5056323;28;20041;-54
2022/05/11 02:55:14;;;;;;;7.68;3.33;;;;;;;18.23;55.82;101101.63;5038224;28;20045;-51
2022/05/11 02:57:42;;;;;;;8.45;2.95;;;;;;;18.21;55.79;101092.84;5021610;28;20037;-50
2022/05/11 03:00:12;;;;;;;6.10;2.88;;;;;;;18.20;55.96;101093.94;5055487;28;20048;-51
2022/05/11 03:02:40;;;;;;;6.07;2.92;;;;;;;18.19;55.97;101091.53;5041967;28;20068;-51
2022/05/11 03:05:11;;;;;;;5.70;2.97;;;;;;;18.17;56.05;101083.53;5039132;28;20119;-47
2022/05/11 03:07:39;;;;;;;7.13;2.92;;;;;;;18.18;56.27;101087.91;5041229;28;20127;-52
2022/05/11 03:10:08;;;;;;;8.57;3.33;;;;;;;18.17;56.43;101080.78;5057460;28;20048;-49
2022/05/11 03:12:36;;;;;;;4.85;2.60;;;;;;;18.18;56.35;101089.88;5066278;28;20045;-49
2022/05/11 03:15:06;;;;;;;4.97;2.60;;;;;;;18.16;56.34;101079.16;5054872;28;20506;-52
2022/05/11 03:17:35;;;;;;;6.30;2.58;;;;;;;18.17;56.21;101078.03;5038863;28;20510;-48
2022/05/11 03:20:04;;;;;;;6.60;2.90;;;;;;;18.16;56.31;101076.41;5054530;28;20041;-50
2022/05/11 03:22:32;;;;;;;4.47;2.47;;;;;;;18.16;56.27;101064.53;5041512;28;20131;-49
2022/05/11 03:25:01;;;;;;;4.57;2.50;;;;;;;18.14;56.10;101067.63;5058026;28;20107;-50
2022/05/11 03:27:30;;;;;;;10.02;3.08;;;;;;;18.13;56.27;101071.50;5037490;28;20051;-49
2022/05/11 03:29:58;;;;;;;5.40;2.88;;;;;;;18.11;56.18;101062.72;5055899;28;20095;-51
2022/05/11 03:35:11;;;;;;;;;;;;;;;18.11;56.16;101065.47;5039993;28;20067;-50
2022/05/11 03:37:39;;;;;;;6.97;2.42;;;;;;;18.08;56.13;101057.84;5036090;28;19970;-46
2022/05/11 03:40:09;;;;;;;5.80;2.40;;;;;;;18.08;56.06;101057.84;5054507;28;20499;-50
2022/05/11 03:42:37;;;;;;;5.70;2.78;;;;;;;18.07;56.14;101056.22;5046931;28;20036;-49
2022/05/11 03:45:17;;;;;;;4.80;2.40;;;;;;;18.07;56.00;101056.22;5056648;28;20040;-53
2022/05/11 03:47:45;;;;;;;6.38;2.58;;;;;;;18.06;56.15;101049.06;5062684;28;20057;-51
2022/05/11 03:50:14;;;;;;;10.90;2.83;;;;;;;18.06;56.15;101049.91;5036543;28;20073;-52
2022/05/11 03:52:42;;;;;;;6.53;2.50;;;;;;;18.06;56.08;101049.06;5055300;28;20044;-49
2022/05/11 03:55:10;;;;;;;5.82;2.50;;;;;;;18.05;56.03;101051.00;5037516;28;20045;-50
2022/05/11 03:57:39;;;;;;;5.60;2.50;;;;;;;18.05;56.28;101047.44;5036405;28;20045;-50
2022/05/11 04:00:11;;;;;;;7.00;2.72;;;;;;;18.04;56.12;101043.06;5053916;28;20415;-50
2022/05/11 04:02:40;;;;;;;3.67;2.45;;;;;;;18.03;56.01;101042.22;5054260;28;20515;-50
2022/05/11 04:05:09;;;;;;;6.72;2.50;;;;;;;18.03;56.30;101050.50;5054097;28;20048;-49
2022/05/11 04:07:38;;;;;;;5.28;2.70;;;;;;;18.03;56.15;101041.44;5035903;28;20041;-53
2022/05/11 04:10:06;;;;;;;8.02;2.88;;;;;;;18.03;56.09;101044.19;5035221;28;20137;-52
2022/05/11 04:12:35;;;;;;;6.60;2.53;;;;;;;18.01;56.10;101040.91;5059517;28;20052;-50
2022/05/11 04:15:03;;;;;;;3.42;2.13;;;;;;;18.00;56.41;101042.06;5054802;28;20040;-50
2022/05/11 04:17:32;;;;;;;5.63;2.20;;;;;;;17.99;56.12;101043.16;5055068;28;20044;-49
2022/05/11 04:20:00;;;;;;;5.65;2.60;;;;;;;17.99;56.41;101040.41;5053015;28;20033;-49
2022/05/11 04:22:27;;;;;;;8.60;2.65;;;;;;;17.98;56.35;101036.84;5042690;28;20041;-52
2022/05/11 04:24:56;;;;;;;4.95;2.55;;;;;;;17.99;56.26;101032.13;5052536;28;20045;-49
2022/05/11 04:27:24;;;;;;;15.25;2.80;;;;;;;17.98;56.23;101034.09;5052641;28;20120;-51
2022/05/11 04:29:52;;;;;;;5.32;2.47;;;;;;;17.97;56.44;101038.00;5052377;28;20037;-50
2022/05/11 04:32:19;;;;;;;5.47;2.60;;;;;;;17.96;56.44;101033.59;5054341;28;20040;-50
2022/05/11 04:34:47;;;;;;;3.63;2.45;;;;;;;17.96;56.70;101032.78;5051486;28;20048;-50
2022/05/11 04:37:15;;;;;;;7.65;2.67;;;;;;;17.93;56.90;101034.22;5052195;28;20045;-51
2022/05/11 04:39:43;;;;;;;5.75;2.50;;;;;;;17.93;56.83;101038.91;5060629;28;20033;-50
2022/05/11 04:42:14;;;;;;;5.25;2.47;;;;;;;17.96;56.98;101035.53;5042574;28;20396;-50
2022/05/11 04:44:42;;;;;;;4.93;2.45;;;;;;;17.96;57.12;101038.28;5053362;28;20072;-51
2022/05/11 04:47:12;;;;;;;7.75;2.60;;;;;;;17.95;57.11;101029.22;5053327;28;20045;-52
2022/05/11 04:49:41;;;;;;;8.90;2.88;;;;;;;17.96;57.10;101032.78;5035828;28;20045;-49
2022/05/11 04:52:15;;;;;;;5.38;2.90;;;;;;;17.97;57.17;101034.41;5036796;28;20403;-49
2022/05/11 04:54:45;;;;;;;5.95;2.80;;;;;;;17.96;57.01;101033.59;5053094;28;20116;-50
2022/05/11 04:57:13;;;;;;;6.95;3.33;;;;;;;17.96;57.38;101039.09;5036540;28;20048;-50
2022/05/11 04:59:40;;;;;;;5.97;2.78;;;;;;;17.96;57.27;101032.78;5053466;28;20124;-51
2022/05/11 05:02:17;;;;;;;5.47;2.60;;;;;;;17.97;57.22;101031.66;5053101;28;20049;-50
2022/05/11 05:04:46;;;;;;;3.08;2.33;;;;;;;17.93;57.22;101033.41;5054423;28;20041;-50
2022/05/11 05:07:14;;;;;;;6.80;2.90;;;;;;;17.91;57.45;101035.66;5053140;28;20048;-55
2022/05/11 05:09:41;;;;;;;7.85;2.58;;;;;;;17.92;57.54;101037.28;5053885;28;20046;-51
2022/05/11 05:12:11;;;;;;;7.68;3.50;;;;;;;18.05;58.03;101036.41;5052673;28;20500;-49
2022/05/11 05:14:39;;;;;;;4.57;2.42;;;;;;;18.09;58.08;101038.25;5052473;28;20055;-53
2022/05/11 05:17:09;;;;;;;6.53;2.22;;;;;;;18.16;58.32;101043.31;5064613;28;20068;-50
2022/05/11 05:19:39;;;;;;;5.93;2.60;;;;;;;18.14;57.60;101045.56;5072757;28;20041;-53
2022/05/11 05:22:07;;;;;;;6.40;2.70;;;;;;;18.12;57.47;101036.78;5053294;28;20052;-50
2022/05/11 05:24:35;;;;;;;4.88;2.85;;;;;;;18.12;57.96;101047.81;5055026;28;20086;-51
2022/05/11 05:27:03;;;;;;;6.38;2.60;;;;;;;18.15;57.54;101043.63;5072873;28;20036;-50
2022/05/11 05:32:17;;;;;;;6.75;2.50;;;;;;;18.07;57.30;101043.25;5054097;28;20387;-52
2022/05/11 05:34:45;;;;;;;5.93;2.92;;;;;;;18.00;57.55;101047.56;5053594;28;20052;-52
2022/05/11 05:37:14;;;;;;;11.18;3.50;;;;;;;17.95;57.58;101047.69;5064842;28;20051;-52
2022/05/11 05:39:41;;;;;;;5.05;2.80;;;;;;;17.96;57.22;101052.88;5072205;28;20174;-51
2022/05/11 05:42:16;;;;;;;8.55;2.70;;;;;;;17.90;57.53;101050.59;5054231;28;20051;-50
2022/05/11 05:44:43;;;;;;;5.53;3.05;;;;;;;17.83;57.66;101049.06;5032543;28;20095;-50
2022/05/11 05:47:11;;;;;;;8.27;3.70;;;;;;;17.81;57.83;101048.56;5028717;28;20060;-50
2022/05/11 05:49:39;;;;;;;6.80;3.15;;;;;;;17.83;58.05;101051.81;5056689;28;20041;-51
2022/05/11 05:52:07;;;;;;;9.52;3.03;;;;;;;17.87;58.23;101052.84;5038718;28;20049;-55
2022/05/11 05:54:36;;;;;;;6.40;2.80;;;;;;;17.89;58.26;101055.25;5064333;28;20036;-52
2022/05/11 05:57:04;;;;;;;8.95;3.40;;;;;;;17.80;58.53;101046.94;5056586;28;20045;-52
2022/05/11 05:59:32;;;;;;;7.13;3.30;;;;;;;17.79;58.67;101059.03;5056180;28;20140;-49
2022/05/11 06:02:00;;;;;;;8.25;3.38;;;;;;;17.80;58.90;101055.19;5038571;28;20057;-50
2022/05/11 06:04:27;;;;;;;6.88;3.00;;;;;;;17.81;59.08;101059.56;5055931;28;20033;-51
2022/05/11 06:06:55;;;;;;;6.60;3.20;;;;;;;17.81;58.96;101067.84;5058199;28;20124;-51
2022/05/11 06:09:22;;;;;;;8.80;3.38;;;;;;;17.80;58.48;101068.97;5055962;28;20037;-51
2022/05/11 06:11:50;;;;;;;7.35;3.40;;;;;;;17.75;58.97;101068.22;5055719;28;20052;-52
2022/05/11 06:14:18;;;;;;;8.43;3.53;;;;;;;17.73;59.01;101067.75;5057391;28;20040;-52
2022/05/11 06:16:45;;;;;;;5.65;2.28;;;;;;;17.83;59.37;101062.84;5055691;28;20088;-51
2022/05/11 06:19:13;;;;;;;16.35;3.80;;;;;;;17.82;58.57;101061.22;5057135;28;20486;-53
2022/05/11 06:21:41;;;;;;;9.35;3.20;;;;;;;17.79;57.98;101055.47;5037962;28;20518;-53
2022/05/11 06:24:08;;;;;;;7.85;3.25;;;;;;;17.82;57.88;101052.97;5056802;28;20071;-50
2022/05/11 06:26:36;;;;;;;7.82;3.53;;;;;;;17.81;57.19;101051.31;5056883;28;20407;-49
2022/05/11 06:29:24;;;;;;;10.02;2.97;;;;;;;17.76;56.94;101045.88;5055680;28;20052;-51
2022/05/11 06:31:51;;;;;;;6.88;2.67;;;;;;;17.76;56.52;101045.88;5072222;28;20071;-52
2022/05/11 06:34:19;;;;;;;6.45;3.00;;;;;;;17.77;55.74;101049.44;5065922;28;20041;-51
2022/05/11 06:36:46;;;;;;;8.75;3.30;;;;;;;17.76;56.09;101045.06;5055329;28;20048;-49
2022/05/11 06:39:14;;;;;;;14.88;4.30;;;;;;;17.83;56.76;101038.03;5039759;28;20041;-50
2022/05/11 06:41:43;;;;;;;17.25;5.40;;;;;;;18.05;56.08;101031.72;5046431;28;20037;-53
2022/05/11 06:44:11;;;;;;;21.75;5.90;;;;;;;18.04;55.73;101043.06;5057134;28;20044;-51
2022/05/11 06:46:38;;;;;;;11.27;3.20;;;;;;;17.98;54.85;101033.28;5040994;28;20045;-49
2022/05/11 06:49:06;;;;;;;7.65;3.17;;;;;;;17.97;55.27;101045.44;5035655;28;20111;-53
2022/05/11 06:51:34;;;;;;;6.40;2.90;;;;;;;18.02;54.65;101034.28;5074772;28;20044;-52
2022/05/11 06:59:33;;;;;;;;;;;;;;;18.15;54.20;101047.19;5054972;28;20037;-51
2022/05/11 07:02:03;;;;;;;9.23;3.10;;;;;;;18.11;53.80;101035.16;5055042;28;19928;-48
2022/05/11 07:04:37;;;;;;;8.48;2.50;;;;;;;17.99;53.90;101034.91;5037788;28;20079;-51
2022/05/11 07:07:06;;;;;;;7.10;2.70;;;;;;;18.03;54.26;101046.94;5056164;28;20045;-50
2022/05/11 07:09:35;;;;;;;10.68;3.25;;;;;;;18.02;54.10;101046.13;5056323;28;20431;-51
2022/05/11 07:12:31;;;;;;;7.40;2.65;;;;;;;17.98;53.68;101058.09;5054958;28;20053;-48
2022/05/11 07:14:59;;;;;;;;;;;;;;;17.90;53.70;101045.88;5055090;28;20491;-53
2022/05/11 07:17:34;;;;;;;12.38;3.65;;;;;;;18.04;53.06;101040.31;5071945;28;19920;-49
2022/05/11 07:20:10;;;;;;;7.53;2.50;;;;;;;18.01;52.84;101043.69;5064966;28;20095;-50
2022/05/11 07:22:39;;;;;;;7.65;2.47;;;;;;;17.97;52.98;101039.94;5074336;28;20419;-50
2022/05/11 07:25:09;;;;;;;8.32;3.00;;;;;;;17.97;53.36;101053.72;5074921;28;20056;-50
2022/05/11 07:27:38;;;;;;;11.48;3.58;;;;;;;17.99;53.31;101052.28;5064480;28;20064;-52
2022/05/11 07:30:08;;;;;;;10.30;3.17;;;;;;;18.01;53.48;101040.91;5037214;28;20048;-52
2022/05/11 07:32:37;;;;;;;7.18;2.70;;;;;;;18.00;53.41;101047.56;5054612;28;20115;-50
2022/05/11 07:35:05;;;;;;;7.07;2.63;;;;;;;17.98;53.03;101055.34;5057004;28;20049;-53
2022/05/11 07:37:33;;;;;;;8.52;3.25;;;;;;;17.96;52.83;101049.31;5071187;28;20040;-52
2022/05/11 07:40:00;;;;;;;14.50;4.25;;;;;;;17.97;52.79;101049.00;5074737;28;20033;-52
2022/05/11 07:42:29;;;;;;;8.55;3.10;;;;;;;17.87;52.90;101041.81;5074472;28;20048;-53
2022/05/11 07:44:57;;;;;;;9.52;3.13;;;;;;;17.82;52.81;101050.19;5074402;28;20102;-54
2022/05/11 07:47:25;;;;;;;7.38;2.97;;;;;;;17.78;52.82;101051.09;5063158;28;20045;-51
2022/05/11 07:49:53;;;;;;;10.02;3.05;;;;;;;17.79;52.67;101050.75;5054064;28;20068;-51
2022/05/11 07:52:20;;;;;;;9.00;3.30;;;;;;;17.79;52.84;101048.00;5054614;28;20381;-51
2022/05/11 07:54:49;;;;;;;9.45;3.10;;;;;;;17.83;53.28;101051.00;5054571;28;20056;-52
2022/05/11 08:00:06;;;;;;;11.80;3.10;;;;;;;17.92;54.18;101062.09;5055323;28;20044;-53
2022/05/11 08:02:40;;;;;;;10.48;3.88;;;;;;;17.93;54.09;101049.94;5037474;28;20058;-50
2022/05/11 08:05:10;;;;;;;8.05;3.08;;;;;;;17.94;54.46;101052.38;5053980;28;20041;-50
2022/05/11 08:07:42;;;;;;;9.77;3.85;;;;;;;17.98;54.64;101055.34;5036556;28;20044;-51
2022/05/11 08:10:29;;;;;;;8.80;3.65;;;;;;;17.99;54.56;101054.19;5054956;28;20033;-53
2022/05/11 08:12:57;;;;;;;10.60;3.00;;;;;;;18.00;54.18;101055.84;5043688;28;20053;-50
2022/05/11 08:15:27;;;;;;;8.38;3.70;;;;;;;18.00;54.60;101056.66;5033050;28;20044;-51
2022/05/11 08:17:55;;;;;;;8.93;3.53;;;;;;;17.97;54.52;101046.25;5055113;28;20048;-50
2022/05/11 08:20:29;;;;;;;17.20;4.05;;;;;;;18.02;54.62;101048.88;5032933;28;20056;-51
2022/05/11 08:22:58;;;;;;;12.60;4.25;;;;;;;18.15;54.36;101041.66;5042206;28;20047;-50
2022/05/11 08:25:28;;;;;;;13.40;4.22;;;;;;;18.27;54.67;101038.34;5054979;28;20044;-50
2022/05/11 08:27:57;;;;;;;20.90;6.35;;;;;;;18.41;54.87;101052.06;5053176;28;20056;-51
2022/05/11 08:33:24;;;;;;;14.32;5.32;;;;;;;18.41;55.95;101038.28;5054078;28;20081;-54
2022/05/11 08:36:13;;;;;;;14.75;4.47;;;;;;;18.47;53.21;101037.00;5049260;28;20047;-51
2022/05/11 08:38:44;;;;;;;17.02;5.18;;;;;;;18.43;53.16;101036.03;5037494;28;20455;-53
2022/05/11 08:41:36;;;;;;;14.10;4.85;;;;;;;18.49;53.27;101045.78;5033776;28;20046;-51
2022/05/11 08:44:27;;;;;;;16.10;5.13;;;;;;;18.70;52.33;101044.09;5028210;28;20056;-54
2022/05/11 08:47:28;;;;;;;16.05;5.25;;;;;;;18.75;54.19;101037.63;5024185;28;20038;-52
2022/05/11 08:50:06;;;;;;;13.10;3.72;;;;;;;18.82;51.26;101042.72;5033781;28;20503;-50
2022/05/11 08:52:43;;;;;;;11.55;3.78;;;;;;;18.66;51.03;101040.34;5016002;28;20405;-49
2022/05/11 08:55:31;;;;;;;15.52;4.85;;;;;;;18.68;55.33;101045.56;5038945;28;20033;-49
2022/05/11 08:58:04;;;;;;;12.80;3.72;;;;;;;18.62;54.33;101038.56;5036384;28;20132;-50
2022/05/11 09:00:33;;;;;;;9.07;3.22;;;;;;;18.64;51.22;101028.84;5030446;28;20052;-51
2022/05/11 09:03:08;;;;;;;12.63;3.78;;;;;;;18.58;51.05;101037.56;5055442;28;20044;-50
2022/05/11 09:05:36;;;;;;;12.77;3.65;;;;;;;18.61;52.02;101036.91;5052105;28;20115;-50
2022/05/11 09:08:06;;;;;;;12.68;3.90;;;;;;;18.57;51.34;101039.50;5052155;28;20407;-48
2022/05/11 09:10:35;;;;;;;9.85;3.38;;;;;;;18.53;50.99;101038.50;5053999;28;20040;-50
2022/05/11 09:13:07;;;;;;;7.72;3.13;;;;;;;18.55;51.48;101033.50;5052905;28;20496;-50
2022/05/11 09:16:06;;;;;;;8.85;3.17;;;;;;;18.56;51.60;101029.59;5052873;28;20052;-50
2022/05/11 09:18:36;;;;;;;9.23;3.47;;;;;;;18.53;51.87;101030.22;5017982;28;20523;-51
2022/05/11 09:21:13;;;;;;;7.50;2.55;;;;;;;18.57;52.25;101024.88;5048215;28;20055;-50
2022/05/11 09:23:43;;;;;;;10.63;4.30;;;;;;;18.65;51.30;101016.66;5063302;28;20064;-51
2022/05/11 09:26:14;;;;;;;11.25;3.95;;;;;;;18.79;52.18;101022.09;5042062;28;20041;-52
2022/05/11 09:28:47;;;;;;;8.55;3.47;;;;;;;18.85;53.33;101020.00;5059032;28;20041;-50
2022/05/11 09:31:24;;;;;;;11.32;3.92;;;;;;;18.94;52.83;101018.91;5073958;28;20047;-47
2022/05/11 09:34:04;;;;;;;11.52;3.38;;;;;;;19.08;51.91;101023.50;5079601;28;20044;-50
2022/05/11 09:36:54;;;;;;;12.52;3.72;;;;;;;19.03;52.02;101013.41;5061513;28;20071;-49
2022/05/11 09:39:21;;;;;;;8.85;3.17;;;;;;;19.20;52.18;101015.41;5079618;28;20044;-51
2022/05/11 09:41:51;;;;;;;9.38;3.30;;;;;;;19.16;51.85;101015.22;5059868;28;20503;-50
2022/05/11 09:44:24;;;;;;;10.18;3.65;;;;;;;19.10;50.75;101011.00;5077674;28;20507;-49
2022/05/11 09:46:52;;;;;;;11.50;3.70;;;;;;;19.20;51.67;101011.84;5079440;28;20437;-47
2022/05/11 09:49:19;;;;;;;12.43;3.80;;;;;;;19.32;51.19;101009.25;5058577;28;20043;-50
2022/05/11 09:51:50;;;;;;;11.68;3.92;;;;;;;19.29;50.42;101012.63;5076294;28;20049;-51
2022/05/11 09:54:24;;;;;;;6.78;2.92;;;;;;;19.29;50.95;101007.13;5079442;28;20048;-50
2022/05/11 09:57:02;;;;;;;8.55;3.42;;;;;;;19.26;50.93;101007.78;5077843;28;20406;-49
2022/05/11 09:59:32;;;;;;;13.05;3.92;;;;;;;19.25;51.38;101006.16;5059992;28;20048;-53
2022/05/11 10:02:15;;;;;;;10.98;4.10;;;;;;;19.31;51.80;101007.63;5039518;28;20041;-51
2022/05/11 10:04:57;;;;;;;12.77;4.30;;;;;;;19.29;51.17;100996.91;5039199;28;20045;-52
2022/05/11 10:07:27;;;;;;;13.88;4.80;;;;;;;19.18;51.36;101005.81;5024463;28;20037;-50
2022/05/11 10:10:07;;;;;;;13.23;4.15;;;;;;;19.15;51.42;101008.09;5050841;28;20043;-51
2022/05/11 10:12:39;;;;;;;15.20;4.90;;;;;;;19.19;51.49;101018.47;5041107;28;20049;-50
2022/05/11 10:24:21;;;;;;;10.77;4.47;;;;;;;19.13;52.06;101004.00;5048708;28;20048;-50
2022/05/11 10:27:08;;;;;;;11.73;3.95;;;;;;;19.24;51.74;100987.94;5054652;28;20046;-51
2022/05/11 10:29:56;;;;;;;12.23;4.18;;;;;;;19.35;51.51;101001.13;5066693;28;20047;-49
2022/05/11 10:32:44;;;;;;;15.15;4.70;;;;;;;19.46;54.81;100996.09;5062599;28;20429;-52
2022/05/11 10:35:46;;;;;;;16.20;4.30;;;;;;;19.63;51.18;100992.53;5041919;28;20036;-51
2022/05/11 10:38:14;;;;;;;9.60;4.20;;;;;;;19.62;51.52;100992.84;5032726;28;20052;-51
2022/05/11 10:40:54;;;;;;;10.90;3.45;;;;;;;19.62;51.60;100981.78;5055661;28;20115;-53
2022/05/11 10:43:27;;;;;;;10.80;4.45;;;;;;;19.62;51.67;100974.31;4352652;28;10001005;-50
2022/05/11 10:46:18;;;;;;;18.05;4.97;;;;;;;19.57;51.00;100983.56;5054296;28;20057;-51
2022/05/11 10:49:38;;;;;;;7.55;3.53;;;;;;;19.59;51.75;100969.44;5034403;28;20518;-51
2022/05/11 10:52:22;;;;;;;11.55;4.50;;;;;;;19.59;51.41;100983.25;4989838;28;20052;-49
2022/05/11 10:55:13;;;;;;;14.90;4.93;;;;;;;19.47;51.41;100961.78;5028607;28;20064;-49
2022/05/11 10:58:01;;;;;;;10.23;3.85;;;;;;;19.59;51.71;100961.16;5049418;28;20055;-49
2022/05/11 11:00:36;;;;;;;12.82;4.70;;;;;;;19.69;51.19;100957.28;5052040;28;20511;-52
2022/05/11 11:03:22;;;;;;;8.55;4.25;;;;;;;19.71;51.54;100963.28;5034002;28;20041;-51
2022/05/11 11:09:13;;;;;;;16.55;4.82;;;;;;;19.67;51.69;100959.50;5054015;28;20041;-50
2022/05/11 11:12:06;;;;;;;12.13;4.43;;;;;;;19.66;51.90;100957.91;5070209;28;20040;-51
2022/05/11 11:14:41;;;;;;;14.43;4.75;;;;;;;19.75;51.96;100965.09;5069614;28;20083;-52
2022/05/11 11:17:13;;;;;;;17.38;4.72;;;;;;;19.78;52.13;100944.25;5048667;28;20068;-50
2022/05/11 11:19:44;;;;;;;11.55;4.00;;;;;;;19.84;52.60;100948.47;5037552;28;20074;-50
2022/05/11 11:22:11;;;;;;;16.50;4.82;;;;;;;19.88;50.80;100951.41;4994505;28;20053;-52
2022/05/11 11:24:43;;;;;;;14.40;4.32;;;;;;;19.84;50.92;100950.41;5026910;28;20152;-52
2022/05/11 11:27:11;;;;;;;11.95;4.07;;;;;;;19.90;50.56;100949.13;5050678;28;20059;-52
2022/05/11 11:30:00;;;;;;;12.38;3.67;;;;;;;19.95;50.04;100947.00;5050333;28;20079;-49
2022/05/11 11:32:28;;;;;;;11.27;4.38;;;;;;;20.01;49.70;100955.91;5011638;28;20132;-51
2022/05/11 11:35:21;;;;;;;10.77;4.00;;;;;;;19.98;49.94;100948.28;5011634;28;20038;-51
2022/05/11 11:38:00;;;;;;;8.43;3.38;;;;;;;19.97;50.04;100941.94;4999736;28;20512;-52
2022/05/11 11:40:29;;;;;;;13.18;4.50;;;;;;;20.02;50.04;100945.69;5010397;28;20097;-56
2022/05/11 11:42:58;;;;;;;19.33;4.43;;;;;;;20.02;49.80;100937.38;5014600;28;20058;-53
2022/05/11 11:45:29;;;;;;;11.55;4.10;;;;;;;20.06;49.30;100935.56;5029035;28;20098;-50
2022/05/11 11:48:24;;;;;;;12.40;3.88;;;;;;;20.09;49.65;100934.94;5026760;28;20550;-54
2022/05/11 11:50:54;;;;;;;12.85;4.30;;;;;;;20.16;49.14;100929.69;5013995;28;20063;-59
2022/05/11 11:53:49;;;;;;;10.55;3.88;;;;;;;20.18;48.76;100932.94;5031375;28;20056;-54
2022/05/11 11:56:37;;;;;;;13.55;4.60;;;;;;;20.19;48.78;100912.44;5032212;28;20057;-53
2022/05/11 11:59:12;;;;;;;9.48;3.00;;;;;;;20.21;50.75;100912.91;5030993;28;20064;-54
2022/05/11 12:01:43;;;;;;;12.73;4.00;;;;;;;20.28;47.89;100924.28;5032005;28;20175;-54
2022/05/11 12:04:23;;;;;;;9.05;3.88;;;;;;;20.32;47.50;100908.63;5029771;28;20527;-54
2022/05/11 12:15:22;;;;;;;10.10;3.83;;;;;;;20.42;46.40;100908.28;5019596;28;20745;-53
2022/05/11 12:17:50;;;;;;;9.65;3.78;;;;;;;20.42;46.02;100897.19;5053444;28;20040;-52
2022/05/11 12:20:20;;;;;;;12.80;3.75;;;;;;;20.44;46.05;100902.38;5052212;28;20045;-50
2022/05/11 12:22:53;;;;;;;8.55;3.33;;;;;;;20.49;47.81;100899.44;5033888;28;20407;-52
2022/05/11 12:25:28;;;;;;;10.48;3.30;;;;;;;20.55;48.80;100894.53;5060871;28;20048;-52
2022/05/11 12:28:02;;;;;;;8.52;3.53;;;;;;;20.63;47.24;100899.22;5064357;28;20431;-55
2022/05/11 12:30:34;;;;;;;11.80;3.17;;;;;;;20.69;45.58;100891.56;5034333;28;20059;-50
2022/05/11 12:33:06;;;;;;;10.65;3.28;;;;;;;20.71;46.18;100884.53;5033558;28;20103;-52